createdAt,value
2018-11-12T00:01:53.656Z,95.60
2018-11-12T00:04:27.464Z,95.60
2018-11-12T00:07:00.815Z,96.00
2018-11-12T00:09:34.557Z,96.00
2018-11-12T00:12:08.106Z,96.00
2018-11-12T00:14:41.520Z,96.00
2018-11-12T00:17:15.158Z,95.80
2018-11-12T00:19:48.574Z,96.00
2018-11-12T00:22:22.808Z,96.00
2018-11-12T00:24:56.289Z,96.00
2018-11-12T00:27:30.776Z,95.90
2018-11-12T00:30:07.791Z,96.10
2018-11-12T00:32:41.709Z,96.10
2018-11-12T00:35:15.334Z,96.00
2018-11-12T00:37:48.869Z,96.00
2018-11-12T00:40:22.302Z,96.00
2018-11-12T00:42:55.906Z,96.10
2018-11-12T00:45:29.530Z,96.00
2018-11-12T00:48:03.039Z,96.00
2018-11-12T00:50:36.545Z,96.00
2018-11-12T00:53:10.019Z,95.90
2018-11-12T00:55:43.742Z,95.80
2018-11-12T00:58:17.224Z,95.80
2018-11-12T01:00:50.863Z,95.60
2018-11-12T01:03:24.400Z,95.60
2018-11-12T01:05:58.148Z,95.80
2018-11-12T01:08:31.637Z,95.80
2018-11-12T01:11:05.755Z,95.70
2018-11-12T01:13:39.445Z,95.50
2018-11-12T01:16:13.338Z,95.90
2018-11-12T01:18:47.131Z,95.70
2018-11-12T01:21:20.548Z,95.80
2018-11-12T01:23:54.765Z,95.90
2018-11-12T01:26:28.469Z,95.80
2018-11-12T01:29:01.965Z,95.90
2018-11-12T01:31:35.289Z,96.00
2018-11-12T01:34:08.747Z,96.10
2018-11-12T01:36:42.254Z,96.60
2018-11-12T01:39:15.652Z,96.50
2018-11-12T01:41:49.119Z,96.10
2018-11-12T01:44:22.579Z,95.50
2018-11-12T01:46:56.238Z,95.50
2018-11-12T01:49:29.777Z,95.40
2018-11-12T01:52:03.220Z,95.80
2018-11-12T01:54:36.772Z,95.50
2018-11-12T01:57:10.715Z,95.50
2018-11-12T01:59:44.121Z,96.00
2018-11-12T02:02:17.552Z,95.70
2018-11-12T02:04:50.993Z,95.20
2018-11-12T02:07:24.666Z,95.50
2018-11-12T02:09:58.087Z,95.00
2018-11-12T02:12:31.660Z,95.30
2018-11-12T02:15:07.468Z,95.60
2018-11-12T02:17:41.333Z,95.90
2018-11-12T02:20:16.964Z,95.40
2018-11-12T02:22:50.823Z,95.60
2018-11-12T02:25:24.066Z,95.60
2018-11-12T02:27:57.575Z,95.60
2018-11-12T02:30:36.862Z,95.60
2018-11-12T02:33:10.671Z,95.60
2018-11-12T02:35:44.412Z,95.40
2018-11-12T02:38:17.803Z,95.60
2018-11-12T02:40:51.300Z,95.90
2018-11-12T02:43:24.765Z,95.90
2018-11-12T02:45:58.447Z,95.90
2018-11-12T02:48:31.927Z,95.70
2018-11-12T02:51:05.681Z,95.70
2018-11-12T02:53:39.105Z,95.40
2018-11-12T02:56:12.555Z,95.80
2018-11-12T02:58:46.809Z,95.60
2018-11-12T03:01:21.141Z,95.90
2018-11-12T03:03:54.743Z,95.50
2018-11-12T03:06:28.264Z,96.00
2018-11-12T03:09:01.926Z,96.20
2018-11-12T03:11:35.496Z,95.90
2018-11-12T03:14:09.297Z,95.70
2018-11-12T03:16:42.633Z,95.80
2018-11-12T03:19:16.771Z,95.80
2018-11-12T03:21:50.243Z,95.70
2018-11-12T03:24:23.753Z,95.70
2018-11-12T03:26:57.225Z,95.60
2018-11-12T03:29:30.635Z,95.70
2018-11-12T03:32:04.468Z,95.80
2018-11-12T03:34:37.985Z,95.80
2018-11-12T03:37:12.153Z,95.80
2018-11-12T03:39:45.678Z,95.40
2018-11-12T03:42:19.409Z,95.80
2018-11-12T03:44:53.167Z,95.60
2018-11-12T03:47:26.750Z,95.80
2018-11-12T03:50:00.450Z,96.10
2018-11-12T03:52:34.045Z,95.70
2018-11-12T03:55:08.332Z,95.60
2018-11-12T03:57:41.971Z,95.40
2018-11-12T04:00:18.817Z,95.30
2018-11-12T04:02:52.180Z,95.60
2018-11-12T04:05:25.874Z,95.30
2018-11-12T04:07:59.489Z,95.30
2018-11-12T04:10:33.032Z,95.50
2018-11-12T04:13:06.645Z,95.40
2018-11-12T04:15:40.171Z,95.50
2018-11-12T04:18:13.811Z,95.70
2018-11-12T04:20:47.365Z,95.50
2018-11-12T04:23:20.843Z,95.30
2018-11-12T04:25:54.410Z,95.30
2018-11-12T04:28:27.879Z,95.50
2018-11-12T04:31:01.431Z,95.30
2018-11-12T04:33:34.743Z,95.60
2018-11-12T04:36:08.180Z,95.60
2018-11-12T04:38:41.782Z,95.90
2018-11-12T04:41:15.298Z,95.90
2018-11-12T04:43:48.954Z,95.90
2018-11-12T04:46:22.353Z,95.90
2018-11-12T04:48:55.916Z,95.90
2018-11-12T04:51:29.271Z,95.90
2018-11-12T04:54:02.816Z,96.20
2018-11-12T04:56:36.225Z,96.00
2018-11-12T04:59:09.646Z,95.90
2018-11-12T05:01:43.366Z,95.90
2018-11-12T05:04:16.800Z,95.90
2018-11-12T05:06:50.465Z,96.10
2018-11-12T05:09:23.839Z,96.30
2018-11-12T05:11:57.352Z,96.20
2018-11-12T05:14:30.823Z,96.40
2018-11-12T05:17:04.522Z,96.40
2018-11-12T05:19:38.042Z,96.20
2018-11-12T05:22:11.756Z,96.20
2018-11-12T05:24:45.150Z,96.40
2018-11-12T05:27:18.605Z,96.30
2018-11-12T05:29:52.056Z,96.40
2018-11-12T05:32:25.526Z,96.60
2018-11-12T05:34:58.936Z,96.60
2018-11-12T05:37:32.504Z,96.50
2018-11-12T05:40:08.227Z,96.70
2018-11-12T05:42:42.296Z,96.80
2018-11-12T05:45:16.942Z,96.70
2018-11-12T05:47:50.323Z,97.00
2018-11-12T05:50:29.072Z,96.70
2018-11-12T05:53:03.662Z,96.80
2018-11-12T05:55:37.143Z,96.60
2018-11-12T05:58:10.539Z,96.30
2018-11-12T06:00:44.155Z,96.30
2018-11-12T06:03:17.492Z,96.40
2018-11-12T06:05:51.044Z,96.40
2018-11-12T06:08:24.403Z,96.70
2018-11-12T06:10:57.839Z,96.60
2018-11-12T06:13:31.338Z,96.70
2018-11-12T06:16:06.271Z,96.60
2018-11-12T06:18:39.923Z,96.50
2018-11-12T06:21:13.299Z,96.50
2018-11-12T06:23:46.924Z,96.70
2018-11-12T06:26:20.535Z,96.50
2018-11-12T06:28:54.071Z,96.30
2018-11-12T06:31:27.515Z,96.30
2018-11-12T06:34:01.172Z,96.50
2018-11-12T06:41:31.422Z,96.50
2018-11-12T06:44:05.499Z,96.50
2018-11-12T06:46:39.244Z,97.00
2018-11-12T06:49:12.797Z,96.60
2018-11-12T06:51:46.448Z,96.20
2018-11-12T06:54:20.087Z,96.10
2018-11-12T06:56:53.508Z,96.20
2018-11-12T06:59:27.203Z,96.60
2018-11-12T07:02:00.895Z,96.80
2018-11-12T07:04:34.572Z,96.60
2018-11-12T07:07:08.208Z,96.00
2018-11-12T07:09:41.803Z,96.20
2018-11-12T07:12:15.348Z,96.40
2018-11-12T07:15:07.462Z,96.70
2018-11-12T07:17:56.154Z,96.30
2018-11-12T07:20:47.497Z,96.60
2018-11-12T07:23:21.276Z,96.60
2018-11-12T07:25:54.796Z,96.70
2018-11-12T07:28:28.198Z,96.70
2018-11-12T07:31:01.773Z,96.50
2018-11-12T07:33:35.268Z,96.10
2018-11-12T07:36:08.796Z,96.10
2018-11-12T07:38:42.299Z,96.50
2018-11-12T07:41:15.879Z,96.70
2018-11-12T07:43:49.485Z,96.50
2018-11-12T07:46:22.958Z,96.60
2018-11-12T07:48:56.642Z,96.40
2018-11-12T07:51:30.274Z,96.40
2018-11-12T07:54:04.180Z,96.40
2018-11-12T07:56:37.844Z,96.50
2018-11-12T07:59:11.348Z,96.80
2018-11-12T08:01:44.825Z,96.80
2018-11-12T08:04:18.191Z,96.20
2018-11-12T08:06:51.762Z,96.00
2018-11-12T08:09:25.388Z,95.90
2018-11-12T08:11:58.925Z,96.30
2018-11-12T08:14:32.631Z,96.60
2018-11-12T08:17:06.092Z,96.90
2018-11-12T08:19:39.675Z,96.80
2018-11-12T08:22:13.226Z,96.60
2018-11-12T08:24:46.761Z,96.90
2018-11-12T08:27:20.451Z,96.60
2018-11-12T08:29:54.108Z,96.40
2018-11-12T08:32:27.632Z,96.20
2018-11-12T08:35:01.175Z,96.20
2018-11-12T08:37:34.731Z,96.40
2018-11-12T08:40:24.508Z,96.60
2018-11-12T08:42:58.030Z,96.50
2018-11-12T08:45:31.491Z,96.70
2018-11-12T08:48:05.761Z,96.40
2018-11-12T08:50:39.276Z,96.30
2018-11-12T08:53:12.780Z,96.30
2018-11-12T08:55:46.414Z,96.80
2018-11-12T08:58:20.581Z,96.80
2018-11-12T09:00:53.511Z,96.90
2018-11-12T09:03:26.840Z,97.00
2018-11-12T09:06:00.419Z,96.90
2018-11-12T09:08:33.889Z,96.90
2018-11-12T09:11:07.565Z,97.00
2018-11-12T09:13:41.665Z,96.80
2018-11-12T09:16:14.695Z,96.90
2018-11-12T09:18:49.562Z,97.20
2018-11-12T09:21:23.047Z,97.60
2018-11-12T09:23:56.671Z,97.60
2018-11-12T09:26:30.477Z,97.60
2018-11-12T09:29:04.188Z,97.40
2018-11-12T09:31:37.571Z,97.40
2018-11-12T09:34:11.119Z,97.40
2018-11-12T09:36:44.714Z,96.70
2018-11-12T09:39:18.162Z,97.10
2018-11-12T09:41:51.780Z,96.90
2018-11-12T09:44:25.346Z,97.20
2018-11-12T09:46:58.899Z,97.40
2018-11-12T09:49:33.168Z,97.50
2018-11-12T09:52:07.019Z,97.30
2018-11-12T09:54:40.671Z,97.30
2018-11-12T09:57:14.323Z,97.40
2018-11-12T09:59:48.151Z,97.60
2018-11-12T10:02:22.370Z,97.40
2018-11-12T10:04:56.773Z,97.60
2018-11-12T10:07:31.072Z,97.70
2018-11-12T10:10:05.767Z,97.70
2018-11-12T10:12:38.531Z,97.60
2018-11-12T10:15:11.986Z,97.80
2018-11-12T10:17:45.384Z,97.90
2018-11-12T10:20:16.829Z,97.90
2018-11-12T10:22:50.436Z,98.50
2018-11-12T10:25:23.960Z,98.20
2018-11-12T10:27:57.565Z,98.30
2018-11-12T10:30:31.058Z,98.10
2018-11-12T10:33:04.807Z,97.90
2018-11-12T10:35:38.302Z,97.90
2018-11-12T10:38:11.874Z,97.90
2018-11-12T10:40:45.397Z,98.20
2018-11-12T10:43:18.933Z,97.90
2018-11-12T10:45:52.846Z,98.20
2018-11-12T10:48:26.544Z,98.30
2018-11-12T10:51:05.032Z,98.30
2018-11-12T10:53:33.828Z,98.40
2018-11-12T10:56:07.527Z,98.50
2018-11-12T10:58:41.056Z,98.60
2018-11-12T11:01:17.519Z,98.60
2018-11-12T11:03:53.410Z,98.10
2018-11-12T11:06:26.894Z,97.40
2018-11-12T11:09:00.488Z,97.50
2018-11-12T11:11:34.085Z,97.70
2018-11-12T11:14:07.997Z,98.00
2018-11-12T11:16:41.653Z,98.00
2018-11-12T11:19:15.239Z,98.10
2018-11-12T11:21:49.196Z,98.20
2018-11-12T11:24:22.913Z,98.20
2018-11-12T11:26:56.299Z,98.30
2018-11-12T11:29:30.008Z,98.50
2018-11-12T11:32:03.706Z,98.10
2018-11-12T11:34:37.444Z,98.30
2018-11-12T11:37:10.791Z,98.30
2018-11-12T11:39:44.327Z,98.50
2018-11-12T11:42:17.818Z,98.50
2018-11-12T11:44:51.321Z,98.30
2018-11-12T11:47:24.800Z,98.00
2018-11-12T11:49:58.280Z,98.00
2018-11-12T11:52:31.710Z,98.00
2018-11-12T11:55:07.268Z,98.10
2018-11-12T11:57:40.899Z,97.70
2018-11-12T12:00:17.716Z,98.10
2018-11-12T12:02:52.449Z,98.00
2018-11-12T12:05:26.479Z,97.90
2018-11-12T12:08:00.053Z,97.90
2018-11-12T12:10:33.572Z,98.00
2018-11-12T12:13:07.185Z,98.20
2018-11-12T12:15:40.760Z,98.40
2018-11-12T12:18:14.303Z,98.40
2018-11-12T12:20:47.821Z,98.50
2018-11-12T12:23:21.265Z,98.40
2018-11-12T12:25:54.866Z,98.30
2018-11-12T12:28:28.392Z,98.00
2018-11-12T12:31:01.908Z,98.20
2018-11-12T12:33:35.560Z,98.10
2018-11-12T12:36:09.095Z,98.10
2018-11-12T12:38:42.599Z,98.10
2018-11-12T12:41:16.160Z,97.90
2018-11-12T12:43:49.678Z,97.80
2018-11-12T12:46:23.151Z,97.80
2018-11-12T12:48:56.620Z,97.60
2018-11-12T12:51:30.273Z,97.90
2018-11-12T12:54:04.170Z,97.60
2018-11-12T12:56:37.628Z,97.70
2018-11-12T12:59:11.261Z,97.90
2018-11-12T13:01:44.970Z,97.60
2018-11-12T13:04:18.431Z,97.50
2018-11-12T13:06:51.965Z,97.50
2018-11-12T13:09:25.662Z,97.30
2018-11-12T13:11:59.291Z,97.00
2018-11-12T13:14:32.923Z,97.10
2018-11-12T13:17:06.635Z,97.40
2018-11-12T13:19:40.190Z,97.70
2018-11-12T13:22:13.576Z,98.00
2018-11-12T13:24:47.187Z,98.10
2018-11-12T13:27:20.709Z,98.10
2018-11-12T13:29:54.324Z,98.10
2018-11-12T13:32:27.751Z,98.20
2018-11-12T13:35:01.111Z,98.10
2018-11-12T13:37:34.832Z,97.80
2018-11-12T13:40:11.374Z,98.00
2018-11-12T13:42:46.162Z,98.00
2018-11-12T13:45:20.014Z,98.00
2018-11-12T13:47:53.674Z,98.20
2018-11-12T13:50:28.386Z,98.20
2018-11-12T13:53:02.683Z,98.20
2018-11-12T13:55:36.212Z,98.30
2018-11-12T13:58:09.780Z,98.30
2018-11-12T14:00:43.420Z,98.00
2018-11-12T14:03:16.866Z,97.20
2018-11-12T14:05:50.307Z,96.90
2018-11-12T14:08:24.043Z,97.00
2018-11-12T14:10:57.755Z,96.80
2018-11-12T14:13:31.498Z,96.90
2018-11-12T14:16:05.111Z,97.20
2018-11-12T14:18:38.860Z,97.50
2018-11-12T14:21:12.704Z,97.80
2018-11-12T14:23:46.208Z,98.20
2018-11-12T14:26:19.704Z,98.20
2018-11-12T14:28:53.254Z,98.00
2018-11-12T14:31:27.143Z,98.00
2018-11-12T14:34:00.970Z,98.10
2018-11-12T14:36:34.511Z,98.10
2018-11-12T14:39:09.239Z,98.30
2018-11-12T14:41:42.835Z,98.30
2018-11-12T14:44:22.915Z,98.30
2018-11-12T14:46:56.468Z,98.50
2018-11-12T14:49:29.913Z,98.70
2018-11-12T14:52:03.796Z,98.70
2018-11-12T14:54:37.328Z,98.80
2018-11-12T14:57:10.933Z,98.80
2018-11-12T14:59:44.659Z,99.00
2018-11-12T15:02:18.240Z,99.10
2018-11-12T15:04:51.839Z,99.30
2018-11-12T15:07:25.436Z,99.30
2018-11-12T15:09:58.998Z,99.40
2018-11-12T15:12:32.538Z,99.50
2018-11-12T15:15:07.198Z,99.50
2018-11-12T15:17:40.719Z,99.50
2018-11-12T15:20:15.289Z,99.60
2018-11-12T15:22:48.951Z,99.80
2018-11-12T15:25:23.596Z,99.70
2018-11-12T15:27:57.038Z,99.70
2018-11-12T15:30:30.559Z,99.80
2018-11-12T15:33:04.188Z,99.80
2018-11-12T15:35:37.812Z,99.90
2018-11-12T15:38:11.363Z,99.90
2018-11-12T15:40:45.035Z,99.90
2018-11-12T15:43:18.786Z,99.90
2018-11-12T15:45:52.127Z,99.90
2018-11-12T15:48:25.808Z,99.90
2018-11-12T15:50:59.494Z,99.90
2018-11-12T15:53:32.966Z,99.90
2018-11-12T15:56:06.482Z,99.90
2018-11-12T15:58:39.988Z,99.90
2018-11-12T16:01:13.372Z,99.70
2018-11-12T16:03:46.918Z,99.50
2018-11-12T16:06:20.453Z,99.30
2018-11-12T16:08:53.803Z,99.30
2018-11-12T16:11:27.519Z,98.90
2018-11-12T16:14:01.396Z,98.60
2018-11-12T16:16:35.024Z,98.50
2018-11-12T16:19:09.352Z,98.20
2018-11-12T16:21:42.878Z,98.70
2018-11-12T16:24:16.402Z,98.50
2018-11-12T16:26:50.093Z,98.50
2018-11-12T16:29:23.543Z,98.50
2018-11-12T16:31:57.104Z,98.50
2018-11-12T16:34:30.820Z,98.50
2018-11-12T16:37:04.342Z,98.40
2018-11-12T16:39:37.760Z,98.40
2018-11-12T16:42:11.323Z,98.40
2018-11-12T16:44:44.736Z,98.30
2018-11-12T16:47:18.154Z,98.10
2018-11-12T16:49:51.708Z,98.30
2018-11-12T16:52:25.282Z,98.40
2018-11-12T16:54:58.779Z,98.30
2018-11-12T16:57:32.450Z,98.30
2018-11-12T17:00:07.585Z,98.30
2018-11-12T17:02:42.928Z,98.20
2018-11-12T17:05:18.868Z,98.20
2018-11-12T17:07:52.655Z,98.30
2018-11-12T17:10:26.837Z,98.20
2018-11-12T17:13:00.370Z,98.20
2018-11-12T17:15:33.837Z,98.50
2018-11-12T17:18:07.576Z,98.40
2018-11-12T17:20:41.115Z,98.40
2018-11-12T17:23:14.588Z,98.20
2018-11-12T17:25:47.995Z,98.30
2018-11-12T17:28:21.858Z,98.50
2018-11-12T17:30:55.471Z,98.50
2018-11-12T17:33:29.106Z,98.50
2018-11-12T17:36:02.878Z,98.50
2018-11-12T17:38:36.323Z,98.60
2018-11-12T17:41:09.919Z,98.50
2018-11-12T17:43:43.400Z,98.60
2018-11-12T17:46:16.992Z,98.60
2018-11-12T17:48:50.375Z,98.70
2018-11-12T17:51:23.811Z,98.70
2018-11-12T17:53:57.270Z,98.70
2018-11-12T17:56:30.910Z,98.70
2018-11-12T17:59:04.651Z,98.60
2018-11-12T18:01:38.399Z,98.80
2018-11-12T18:04:11.837Z,98.80
2018-11-12T18:06:45.522Z,98.80
2018-11-12T18:09:19.061Z,98.90
2018-11-12T18:11:52.660Z,98.80
2018-11-12T18:14:26.119Z,98.80
2018-11-12T18:16:59.628Z,98.90
2018-11-12T18:19:33.155Z,98.70
2018-11-12T18:22:06.789Z,98.70
2018-11-12T18:24:40.316Z,98.60
2018-11-12T18:27:13.890Z,98.70
2018-11-12T18:29:47.307Z,98.40
2018-11-12T18:32:20.907Z,98.50
2018-11-12T18:34:54.511Z,98.40
2018-11-12T18:37:28.194Z,98.30
2018-11-12T18:40:01.694Z,98.10
2018-11-12T18:42:35.311Z,97.90
2018-11-12T18:45:11.261Z,98.30
2018-11-12T18:47:44.904Z,97.90
2018-11-12T18:50:20.383Z,97.90
2018-11-12T18:52:53.944Z,98.00
2018-11-12T18:55:27.675Z,97.90
2018-11-12T18:58:01.357Z,97.40
2018-11-12T19:00:35.129Z,97.60
2018-11-12T19:03:08.659Z,97.40
2018-11-12T19:05:42.514Z,97.50
2018-11-12T19:08:16.202Z,97.90
2018-11-12T19:10:49.714Z,97.70
2018-11-12T19:13:23.285Z,97.60
2018-11-12T19:15:56.899Z,97.60
2018-11-12T19:18:30.672Z,97.90
2018-11-12T19:21:04.439Z,97.90
2018-11-12T19:23:38.070Z,97.90
2018-11-12T19:26:11.806Z,97.80
2018-11-12T19:28:45.404Z,97.80
2018-11-12T19:31:19.268Z,97.60
2018-11-12T19:33:52.881Z,97.70
2018-11-12T19:36:26.307Z,97.80
2018-11-12T19:38:59.807Z,97.70
2018-11-12T19:41:33.367Z,97.70
2018-11-12T19:44:06.845Z,97.90
2018-11-12T19:46:40.324Z,97.80
2018-11-12T19:49:13.909Z,97.70
2018-11-12T19:51:47.581Z,97.90
2018-11-12T19:54:21.143Z,97.80
2018-11-12T19:56:54.733Z,97.90
2018-11-12T19:59:28.299Z,97.90
2018-11-12T20:02:01.806Z,97.90
2018-11-12T20:04:35.322Z,97.90
2018-11-12T20:07:08.941Z,97.90
2018-11-12T20:09:42.468Z,97.90
2018-11-12T20:12:15.968Z,97.90
2018-11-12T20:14:49.537Z,97.90
2018-11-12T20:17:22.935Z,97.90
2018-11-12T20:19:56.569Z,97.70
2018-11-12T20:22:30.082Z,97.80
2018-11-12T20:25:04.043Z,97.90
2018-11-12T20:27:37.570Z,97.80
2018-11-12T20:30:15.166Z,97.70
2018-11-12T20:32:48.631Z,97.60
2018-11-12T20:35:22.005Z,97.70
2018-11-12T20:37:55.475Z,97.60
2018-11-12T20:40:28.930Z,97.70
2018-11-12T20:43:02.345Z,97.90
2018-11-12T20:45:35.976Z,98.20
2018-11-12T20:48:09.604Z,97.80
2018-11-12T20:50:43.126Z,97.60
2018-11-12T20:53:16.547Z,97.70
2018-11-12T20:55:50.157Z,97.70
2018-11-12T20:58:23.661Z,97.80
2018-11-12T21:00:57.396Z,97.70
2018-11-12T21:03:30.979Z,97.40
2018-11-12T21:06:05.109Z,97.30
2018-11-12T21:08:38.643Z,97.70
2018-11-12T21:11:12.300Z,97.40
2018-11-12T21:13:45.833Z,97.30
2018-11-12T21:16:19.612Z,97.20
2018-11-12T21:18:53.176Z,97.20
2018-11-12T21:21:26.644Z,97.30
2018-11-12T21:24:00.247Z,96.90
2018-11-12T21:26:34.183Z,96.90
2018-11-12T21:29:07.625Z,96.60
2018-11-12T21:31:41.212Z,97.00
2018-11-12T21:34:14.638Z,96.80
2018-11-12T21:36:48.355Z,96.80
2018-11-12T21:39:21.810Z,96.90
2018-11-12T21:41:55.348Z,96.70
2018-11-12T21:44:29.222Z,96.80
2018-11-12T21:47:02.575Z,96.80
2018-11-12T21:49:36.227Z,96.70
2018-11-12T21:52:09.829Z,96.90
2018-11-12T21:54:43.373Z,96.80
2018-11-12T21:57:17.090Z,96.90
2018-11-12T21:59:50.594Z,96.90
2018-11-12T22:02:24.147Z,96.80
2018-11-12T22:04:57.929Z,96.70
2018-11-12T22:07:31.312Z,96.60
2018-11-12T22:10:07.025Z,96.50
2018-11-12T22:12:41.646Z,96.70
2018-11-12T22:15:15.655Z,96.70
2018-11-12T22:17:49.077Z,96.70
2018-11-12T22:20:24.189Z,96.70
2018-11-12T22:22:57.772Z,96.70
2018-11-12T22:25:31.228Z,96.80
2018-11-12T22:28:05.049Z,96.70
2018-11-12T22:30:38.456Z,97.00
2018-11-12T22:33:13.360Z,96.70
2018-11-12T22:35:46.760Z,96.80
2018-11-12T22:38:20.362Z,96.50
2018-11-12T22:40:53.893Z,96.30
2018-11-12T22:43:27.507Z,96.30
2018-11-12T22:46:01.163Z,96.40
2018-11-12T22:48:34.551Z,96.50
2018-11-12T22:51:08.010Z,96.70
2018-11-12T22:53:41.612Z,96.50
2018-11-12T22:56:15.415Z,96.60
2018-11-12T22:58:48.766Z,96.50
2018-11-12T23:01:22.216Z,96.60
2018-11-12T23:03:55.712Z,96.30
2018-11-12T23:06:29.305Z,96.30
2018-11-12T23:09:16.485Z,96.00
2018-11-12T23:11:50.380Z,96.50
2018-11-12T23:14:23.831Z,96.10
2018-11-12T23:16:57.529Z,96.60
2018-11-12T23:19:30.975Z,96.00
2018-11-12T23:22:04.325Z,96.10
2018-11-12T23:24:37.825Z,96.10
2018-11-12T23:27:11.427Z,96.20
2018-11-12T23:29:45.026Z,96.30
2018-11-12T23:32:18.798Z,96.20
2018-11-12T23:34:52.350Z,96.30
2018-11-12T23:37:25.932Z,96.30
2018-11-12T23:39:59.371Z,96.30
2018-11-12T23:42:32.827Z,96.00
2018-11-12T23:45:06.832Z,96.30
2018-11-12T23:47:40.344Z,96.30
2018-11-12T23:50:15.470Z,96.60
2018-11-12T23:52:49.665Z,96.70
2018-11-12T23:55:23.192Z,96.50
2018-11-12T23:57:56.681Z,96.50
